ストックホルム/アーランダ の空港の天気 - METARとTAF

ストックホルム・アーランダ空港 ( ESSA / ARN ) - スウェーデン ストックホルム
飛行場実況気象(Metar)
観測時間04/15 06:20 CEST (04/15 04:20 UTC)
風向・風速北 2m/s
視程10km以上
天気現象
なし
気温-5℃
湿度93%
気圧1031hPa
METARESSA 150420Z 36003KT CAVOK M05/M06 Q1031 R88/09//95 NOSIG
過去の天気等 Google飛行場航空写真 Wunderground天気予報

過去48時間のMETAR

飛行場予報(TAF)
発表時間: 4/15 01:30 CEST (4/14 23:30 UTC)
予報対象時間: 15日2時 CEST ~ 16日2時 CEST
風向・風速北北東 2m/s
視程10km以上
なし
TAF ESSA 142330Z 1500/1524 03003KT CAVOK